Time;durP1;ratioP1;P1;durP2;ratioP2;P2;SDS_P1;SDS_P2;PMS_P1;PMS_P2;Temp;Humidity;BMP_temperature;BMP_pressure;BME280_temperature;BME280_humidity;BME280_pressure;Samples;Min_cycle;Max_cycle;Signal;HPM_P1;HPM_P2
2022/08/28 00:01:08;;;;;;;11.75;7.88;;;;;;;26.43;60.50;100698.22;5013719;28;20045;-73
2022/08/28 00:03:35;;;;;;;7.85;6.93;;;;;;;26.47;60.63;100694.13;5014575;28;20049;-73
2022/08/28 00:06:04;;;;;;;6.93;5.80;;;;;;;26.53;59.94;100700.69;5013130;28;20054;-72
2022/08/28 00:08:32;;;;;;;7.22;6.45;;;;;;;26.57;60.06;100694.72;5014359;28;20073;-72
2022/08/28 00:11:00;;;;;;;7.40;6.00;;;;;;;26.63;59.56;100706.75;5014482;28;20053;-73
2022/08/28 00:13:27;;;;;;;7.18;6.03;;;;;;;26.67;59.65;100705.34;5013754;28;20050;-72
2022/08/28 00:15:59;;;;;;;7.00;5.57;;;;;;;26.70;59.52;100707.69;5014384;28;20049;-73
2022/08/28 00:18:30;;;;;;;6.28;5.68;;;;;;;26.74;59.25;100708.16;5013954;28;20478;-73
2022/08/28 00:20:58;;;;;;;6.18;5.15;;;;;;;26.77;59.13;100715.94;5014042;28;20053;-73
2022/08/28 00:23:26;;;;;;;6.07;5.13;;;;;;;26.81;59.24;100717.25;5013836;28;20049;-72
2022/08/28 00:26:10;;;;;;;8.38;5.47;;;;;;;26.82;59.30;100710.81;5013999;28;20045;-73
2022/08/28 00:28:37;;;;;;;6.07;5.35;;;;;;;26.84;58.95;100711.47;5013725;28;20057;-73
2022/08/28 00:31:05;;;;;;;6.03;5.43;;;;;;;26.85;59.02;100710.44;5013864;28;20060;-73
2022/08/28 00:33:34;;;;;;;6.65;5.20;;;;;;;26.87;58.88;100716.53;5013497;28;20379;-72
2022/08/28 00:36:02;;;;;;;6.03;5.28;;;;;;;26.88;58.76;100704.63;5013486;28;20041;-73
2022/08/28 00:38:30;;;;;;;8.60;5.57;;;;;;;26.91;58.68;100700.72;5013510;28;20048;-72
2022/08/28 00:41:01;;;;;;;6.28;5.57;;;;;;;26.91;58.84;100703.44;5014168;28;20125;-72
2022/08/28 00:43:40;;;;;;;5.75;5.15;;;;;;;26.93;58.43;100709.50;5013367;28;20057;-73
2022/08/28 00:46:17;;;;;;;5.75;5.13;;;;;;;26.94;58.42;100712.06;5013977;28;20045;-73
2022/08/28 00:48:45;;;;;;;5.95;5.43;;;;;;;26.94;58.73;100700.31;5013666;28;20057;-73
2022/08/28 00:54:01;;;;;;;6.50;5.32;;;;;;;26.95;58.25;100697.44;5013243;28;20073;-73
2022/08/28 00:56:36;;;;;;;6.93;4.70;;;;;;;26.95;58.31;100697.44;5013711;28;20057;-73
2022/08/28 00:59:08;;;;;;;5.45;4.90;;;;;;;26.97;58.36;100700.78;5013675;28;20038;-73
2022/08/28 01:01:37;;;;;;;7.50;4.70;;;;;;;26.97;58.39;100695.38;5016565;28;20105;-72
2022/08/28 01:04:06;;;;;;;6.80;5.63;;;;;;;26.98;58.53;100705.22;5017622;28;20054;-73
2022/08/28 01:06:35;;;;;;;5.50;5.00;;;;;;;26.98;58.21;100705.22;5017197;28;20046;-72
2022/08/28 01:09:04;;;;;;;6.45;5.05;;;;;;;26.98;58.02;100697.06;5017194;28;20049;-73
2022/08/28 01:11:32;;;;;;;6.20;4.70;;;;;;;27.00;57.98;100699.59;5017520;28;20044;-73
2022/08/28 01:14:01;;;;;;;5.35;4.82;;;;;;;26.99;58.16;100701.47;5016939;28;20041;-73
2022/08/28 01:16:30;;;;;;;5.30;4.32;;;;;;;26.99;58.01;100696.03;5017438;28;20050;-73
2022/08/28 01:19:08;;;;;;;5.60;4.85;;;;;;;27.01;57.74;100701.28;5017729;28;20045;-73
2022/08/28 01:21:44;;;;;;;6.47;5.63;;;;;;;27.00;57.97;100692.28;5017365;28;20057;-73
2022/08/28 01:24:15;;;;;;;5.85;5.35;;;;;;;27.00;58.23;100700.44;5017073;28;20042;-73
2022/08/28 01:26:43;;;;;;;5.40;4.63;;;;;;;27.01;57.96;100701.28;5016978;28;20056;-73
2022/08/28 01:29:11;;;;;;;5.88;4.72;;;;;;;27.00;57.92;100700.44;5016557;28;20041;-73
2022/08/28 01:31:39;;;;;;;5.20;4.70;;;;;;;27.01;57.99;100693.13;5017357;28;20053;-73
2022/08/28 01:34:09;;;;;;;6.20;5.35;;;;;;;27.01;57.98;100693.97;5017036;28;20057;-73
2022/08/28 01:36:38;;;;;;;5.68;5.18;;;;;;;27.01;58.02;100696.69;5016668;28;20057;-73
2022/08/28 01:39:13;;;;;;;5.43;4.80;;;;;;;27.02;57.85;100692.09;5016654;28;20045;-73
2022/08/28 01:41:45;;;;;;;6.38;5.47;;;;;;;27.02;57.87;100689.38;5016587;28;20046;-73
2022/08/28 01:44:14;;;;;;;7.07;5.10;;;;;;;27.02;58.21;100689.38;5017414;28;20041;-73
2022/08/28 01:46:45;;;;;;;5.63;4.68;;;;;;;27.02;57.66;100687.53;5016688;28;20052;-73
2022/08/28 01:49:13;;;;;;;5.20;4.70;;;;;;;27.01;57.93;100683.09;5015961;28;20050;-73
2022/08/28 01:51:41;;;;;;;5.80;5.10;;;;;;;27.02;57.64;100675.78;5016236;28;20069;-73
2022/08/28 01:54:09;;;;;;;6.40;5.80;;;;;;;27.03;58.03;100682.94;5016440;28;20478;-73
2022/08/28 01:56:39;;;;;;;5.88;4.95;;;;;;;27.03;57.61;100677.50;5016076;28;20382;-73
2022/08/28 01:59:09;;;;;;;6.25;5.65;;;;;;;27.02;57.58;100682.09;5016108;28;20121;-73
2022/08/28 02:01:38;;;;;;;6.03;4.78;;;;;;;27.03;57.76;100672.91;5016836;28;20050;-73
2022/08/28 02:04:06;;;;;;;5.60;5.00;;;;;;;27.02;57.63;100673.06;5016502;28;20068;-73
2022/08/28 02:06:34;;;;;;;5.78;5.20;;;;;;;27.03;57.80;100675.63;5014839;28;20045;-73
2022/08/28 02:09:01;;;;;;;5.60;5.10;;;;;;;27.02;57.88;100682.09;5014733;28;20057;-72
2022/08/28 02:11:30;;;;;;;5.85;4.95;;;;;;;27.03;57.86;100683.78;5014509;28;20397;-73
2022/08/28 02:13:59;;;;;;;5.72;5.13;;;;;;;27.04;57.60;100687.31;5014548;28;20072;-73
2022/08/28 02:16:27;;;;;;;8.15;5.30;;;;;;;27.03;57.40;100691.09;5014617;28;20046;-71
2022/08/28 02:18:54;;;;;;;7.28;6.43;;;;;;;27.03;57.56;100686.50;5015331;28;20038;-71
2022/08/28 02:21:22;;;;;;;6.53;5.93;;;;;;;27.03;57.67;100683.78;5015015;28;20129;-71
2022/08/28 02:23:50;;;;;;;7.65;6.35;;;;;;;27.03;57.65;100683.78;5014884;28;20046;-71
2022/08/28 02:26:18;;;;;;;7.00;6.30;;;;;;;27.03;57.78;100677.50;5015004;28;20060;-72
2022/08/28 02:28:45;;;;;;;6.38;5.72;;;;;;;27.04;57.45;100676.47;5015078;28;20045;-71
2022/08/28 02:31:13;;;;;;;6.90;6.20;;;;;;;27.03;57.35;100672.91;5014576;28;20544;-72
2022/08/28 02:33:43;;;;;;;6.85;6.15;;;;;;;27.02;57.60;100668.50;5014446;28;20046;-71
2022/08/28 02:36:13;;;;;;;6.40;5.82;;;;;;;27.03;57.42;100666.63;5013397;28;20402;-71
2022/08/28 02:38:41;;;;;;;7.43;6.57;;;;;;;27.03;57.59;100672.91;5014663;28;20053;-71
2022/08/28 02:41:09;;;;;;;7.38;6.32;;;;;;;27.03;57.65;100661.19;5013551;28;20053;-71
2022/08/28 02:43:36;;;;;;;6.90;6.20;;;;;;;27.02;57.47;100668.50;5014900;28;20056;-71
2022/08/28 02:46:05;;;;;;;7.88;6.90;;;;;;;27.02;57.46;100670.34;5014976;28;20046;-71
2022/08/28 02:48:35;;;;;;;6.75;6.05;;;;;;;27.02;57.36;100671.22;5014211;28;20060;-72
2022/08/28 02:51:10;;;;;;;6.97;6.28;;;;;;;27.02;57.37;100654.91;5015175;28;20054;-71
2022/08/28 02:53:38;;;;;;;6.72;6.05;;;;;;;27.03;57.57;100653.03;5014855;28;20406;-72
2022/08/28 02:56:08;;;;;;;6.15;5.55;;;;;;;27.02;57.45;100654.03;5014793;28;20404;-71
2022/08/28 02:58:35;;;;;;;6.95;5.75;;;;;;;27.02;57.27;100660.34;5014762;28;20046;-71
2022/08/28 03:01:05;;;;;;;6.40;5.78;;;;;;;27.02;57.23;100648.63;5013146;28;20061;-71
2022/08/28 03:03:33;;;;;;;6.30;5.48;;;;;;;27.02;57.01;100646.78;4987593;28;1203359;-73
2022/08/28 03:06:03;;;;;;;7.40;6.00;;;;;;;27.01;57.03;100641.50;5015265;28;20045;-71
2022/08/28 03:08:31;;;;;;;6.03;5.43;;;;;;;27.02;57.13;100643.19;5014935;28;20406;-72
2022/08/28 03:10:59;;;;;;;8.38;6.53;;;;;;;27.02;56.93;100644.06;5014794;28;20046;-71
2022/08/28 03:13:27;;;;;;;7.13;6.43;;;;;;;27.02;56.85;100649.47;5014881;28;20050;-71
2022/08/28 03:15:56;;;;;;;7.10;6.40;;;;;;;27.01;56.84;100650.50;5014701;28;20042;-71
2022/08/28 03:18:27;;;;;;;7.25;6.55;;;;;;;27.01;56.91;100658.66;5015127;28;20057;-71
2022/08/28 03:20:55;;;;;;;6.70;6.07;;;;;;;27.01;56.90;100653.22;5015475;28;20046;-72
2022/08/28 03:23:25;;;;;;;7.18;6.57;;;;;;;27.01;56.77;100658.66;5014106;28;20050;-71
2022/08/28 03:26:02;;;;;;;6.72;6.13;;;;;;;27.01;56.88;100664.06;5015555;28;20041;-71
2022/08/28 03:28:37;;;;;;;7.03;6.32;;;;;;;27.02;56.94;100664.91;5015286;28;20045;-71
2022/08/28 03:31:06;;;;;;;7.38;5.82;;;;;;;27.01;57.00;100669.50;5014834;28;20053;-72
2022/08/28 03:33:34;;;;;;;7.13;5.72;;;;;;;27.02;56.83;100664.91;5014558;28;20393;-71
2022/08/28 03:36:03;;;;;;;6.82;6.13;;;;;;;27.01;56.87;100671.38;5014945;28;20041;-71
2022/08/28 03:38:31;;;;;;;7.30;6.07;;;;;;;27.01;56.67;100668.66;5014280;28;20481;-71
2022/08/28 03:40:59;;;;;;;6.53;5.93;;;;;;;27.01;56.34;100674.09;5014225;28;20046;-71
2022/08/28 03:43:26;;;;;;;6.20;5.30;;;;;;;27.01;56.58;100668.66;5014268;28;20517;-71
2022/08/28 03:45:57;;;;;;;7.40;6.68;;;;;;;27.01;56.59;100665.94;5014848;28;20042;-71
2022/08/28 03:48:26;;;;;;;6.95;6.35;;;;;;;27.00;56.51;100662.41;5014515;28;20046;-71
2022/08/28 03:50:54;;;;;;;6.72;5.90;;;;;;;27.01;56.73;100674.94;5014300;28;20044;-71
2022/08/28 03:53:25;;;;;;;6.47;5.90;;;;;;;27.00;56.50;100675.97;5014147;28;20410;-71
2022/08/28 03:55:53;;;;;;;7.88;5.97;;;;;;;26.99;56.48;100677.03;5014697;28;20050;-72
2022/08/28 03:58:21;;;;;;;6.72;6.10;;;;;;;27.01;56.12;100693.13;5014117;28;20075;-71
2022/08/28 04:00:49;;;;;;;7.20;6.47;;;;;;;26.99;56.05;100679.75;5014379;28;20378;-72
2022/08/28 04:03:17;;;;;;;7.78;7.03;;;;;;;26.98;55.87;100682.63;5014583;28;20046;-72
2022/08/28 04:05:46;;;;;;;8.20;7.50;;;;;;;26.97;56.15;100689.09;5013522;28;20521;-71
2022/08/28 04:08:15;;;;;;;8.13;7.32;;;;;;;26.95;55.71;100681.13;5013813;28;20057;-71
2022/08/28 04:10:44;;;;;;;8.93;8.13;;;;;;;26.92;55.97;100686.94;5014086;28;20053;-71
2022/08/28 04:13:13;;;;;;;12.77;10.93;;;;;;;26.87;56.02;100687.50;5014085;28;20042;-71
2022/08/28 04:15:41;;;;;;;11.32;10.13;;;;;;;26.82;55.93;100680.94;5014014;28;20049;-71
2022/08/28 04:18:09;;;;;;;12.23;11.07;;;;;;;26.80;55.86;100680.28;5014349;28;20056;-71
2022/08/28 04:20:37;;;;;;;11.63;10.48;;;;;;;26.75;55.95;100677.28;5013883;28;20063;-71
2022/08/28 04:23:06;;;;;;;11.30;10.20;;;;;;;26.72;55.65;100674.91;5013484;28;20054;-71
2022/08/28 04:25:34;;;;;;;12.15;10.95;;;;;;;26.69;55.59;100672.56;5013800;28;20402;-72
2022/08/28 04:28:01;;;;;;;11.48;10.40;;;;;;;26.67;55.82;100685.50;5013656;28;20050;-71
2022/08/28 04:30:29;;;;;;;11.98;10.68;;;;;;;26.66;55.81;100681.06;5013843;28;20449;-71
2022/08/28 04:32:56;;;;;;;13.88;11.93;;;;;;;26.61;55.94;100682.47;5014217;28;20053;-71
2022/08/28 04:35:24;;;;;;;12.93;11.75;;;;;;;26.58;56.04;100680.13;5013736;28;20046;-71
2022/08/28 04:37:51;;;;;;;12.60;11.30;;;;;;;26.54;55.98;100678.81;5013450;28;20397;-71
2022/08/28 04:40:21;;;;;;;13.73;12.07;;;;;;;26.50;56.02;100688.34;5013550;28;20501;-71
2022/08/28 04:42:50;;;;;;;13.15;11.70;;;;;;;26.47;55.90;100698.72;5013714;28;20057;-71
2022/08/28 04:45:17;;;;;;;13.77;12.43;;;;;;;26.44;55.74;100694.47;5013419;28;20046;-71
2022/08/28 04:47:44;;;;;;;15.95;12.65;;;;;;;26.42;55.98;100691.09;5013761;28;20045;-71
2022/08/28 04:50:12;;;;;;;13.50;10.70;;;;;;;26.42;55.87;100698.41;5013139;28;20049;-71
2022/08/28 04:52:41;;;;;;;12.75;11.48;;;;;;;26.40;55.96;100704.00;5013213;28;20045;-71
2022/08/28 04:55:09;;;;;;;11.32;10.23;;;;;;;26.39;55.89;100702.31;5012438;28;20050;-71
2022/08/28 04:57:36;;;;;;;12.25;10.63;;;;;;;26.38;55.84;100703.34;5013455;28;20042;-71
2022/08/28 05:00:06;;;;;;;11.77;10.75;;;;;;;26.37;55.63;100715.22;5013035;28;20512;-71
2022/08/28 05:02:33;;;;;;;11.80;10.63;;;;;;;26.35;55.73;100733.56;5013537;28;20049;-71
2022/08/28 05:05:02;;;;;;;12.13;10.85;;;;;;;26.34;55.54;100730.00;5012867;28;20050;-71
2022/08/28 05:07:29;;;;;;;12.60;10.13;;;;;;;26.31;55.64;100746.66;5013205;28;20064;-71
2022/08/28 05:09:57;;;;;;;11.55;9.85;;;;;;;26.31;55.61;100748.53;5013169;28;20050;-71
2022/08/28 05:12:25;;;;;;;10.45;9.30;;;;;;;26.30;55.64;100749.56;5013647;28;20073;-71
2022/08/28 05:14:52;;;;;;;10.77;9.25;;;;;;;26.28;55.96;100755.13;5012907;28;20049;-71
2022/08/28 05:17:20;;;;;;;12.52;10.80;;;;;;;26.23;55.71;100751.28;5012925;28;20098;-71
2022/08/28 05:19:47;;;;;;;15.10;11.35;;;;;;;26.12;55.90;100749.81;5013067;28;20046;-71
2022/08/28 05:22:14;;;;;;;13.18;11.82;;;;;;;26.04;56.22;100750.69;5013557;28;20045;-71
2022/08/28 05:24:42;;;;;;;12.40;11.27;;;;;;;26.02;56.22;100751.94;5013676;28;20057;-71
2022/08/28 05:27:09;;;;;;;9.82;8.82;;;;;;;26.02;56.27;100760.06;5012747;28;20053;-71
2022/08/28 05:29:36;;;;;;;11.18;10.00;;;;;;;26.02;56.70;100760.06;5012739;28;20049;-71
2022/08/28 05:32:04;;;;;;;12.63;11.13;;;;;;;26.02;56.63;100757.34;5013780;28;20041;-71
2022/08/28 05:34:31;;;;;;;13.98;11.57;;;;;;;25.98;56.84;100750.59;5012977;28;20057;-71
2022/08/28 05:36:59;;;;;;;12.77;11.50;;;;;;;25.95;56.91;100756.38;5012843;28;20490;-71
2022/08/28 05:39:26;;;;;;;13.60;12.32;;;;;;;25.91;57.26;100752.31;5012738;28;20508;-71
2022/08/28 05:41:53;;;;;;;16.15;13.38;;;;;;;25.90;57.50;100748.75;5012604;28;20041;-71
2022/08/28 05:44:21;;;;;;;14.15;12.73;;;;;;;25.87;57.56;100760.81;5012755;28;20057;-71
2022/08/28 05:46:48;;;;;;;13.57;12.00;;;;;;;25.84;57.79;100757.59;5014026;28;20053;-71
2022/08/28 05:49:18;;;;;;;14.98;13.48;;;;;;;25.79;57.89;100755.41;5016280;28;20046;-71
2022/08/28 05:51:46;;;;;;;17.63;14.00;;;;;;;25.72;57.69;100754.38;5016857;28;20045;-71
2022/08/28 05:54:14;;;;;;;17.48;15.40;;;;;;;25.64;58.05;100751.72;5016409;28;20520;-71
2022/08/28 05:56:44;;;;;;;17.17;15.57;;;;;;;25.55;58.50;100760.91;5016409;28;20042;-71
2022/08/28 05:59:12;;;;;;;17.13;15.32;;;;;;;25.49;59.15;100764.31;5016629;28;20371;-71
2022/08/28 06:01:43;;;;;;;15.40;13.80;;;;;;;25.43;59.31;100765.00;5016141;28;20053;-71
2022/08/28 06:04:14;;;;;;;13.55;12.25;;;;;;;25.43;59.49;100763.13;5016095;28;20413;-71
2022/08/28 06:06:42;;;;;;;13.63;12.27;;;;;;;25.44;59.70;100761.25;5017035;28;20057;-71
2022/08/28 06:09:18;;;;;;;14.68;13.18;;;;;;;25.46;59.59;100768.22;5016567;28;20057;-71
2022/08/28 06:11:46;;;;;;;14.52;13.15;;;;;;;25.46;59.70;100772.78;4998731;28;20049;-71
2022/08/28 06:14:15;;;;;;;14.35;12.85;;;;;;;25.44;59.98;100772.94;5014659;28;20062;-71
2022/08/28 06:16:50;;;;;;;15.90;14.38;;;;;;;25.44;60.04;100780.25;5015996;28;20060;-71
2022/08/28 06:19:21;;;;;;;14.73;13.15;;;;;;;25.39;60.22;100770.75;5016181;28;20052;-71
2022/08/28 06:21:52;;;;;;;14.85;13.15;;;;;;;25.40;60.17;100779.72;5016356;28;20046;-71
2022/08/28 06:24:20;;;;;;;13.20;11.90;;;;;;;25.42;60.44;100782.28;5016210;28;20052;-71
2022/08/28 06:26:47;;;;;;;16.13;12.60;;;;;;;25.45;60.75;100784.66;5015745;28;20045;-71
2022/08/28 06:29:17;;;;;;;14.65;12.35;;;;;;;25.50;60.70;100776.84;5015659;28;20049;-71
2022/08/28 06:31:52;;;;;;;15.15;13.60;;;;;;;25.53;60.55;100777.34;5015749;28;20046;-71
2022/08/28 06:34:19;;;;;;;;;;;;;;;25.57;60.50;100777.84;5016665;28;20049;-71
2022/08/28 06:36:47;;;;;;;12.48;11.20;;;;;;;25.60;60.30;100778.34;5015681;28;19928;-71
2022/08/28 06:39:21;;;;;;;10.70;9.63;;;;;;;25.65;60.06;100781.38;5015599;28;20050;-71
2022/08/28 06:41:49;;;;;;;11.68;10.48;;;;;;;25.72;60.34;100792.34;5014093;28;20514;-71
2022/08/28 06:44:19;;;;;;;11.70;10.50;;;;;;;25.75;60.22;100805.56;5015833;28;20474;-71
2022/08/28 06:46:50;;;;;;;14.75;10.80;;;;;;;25.80;60.11;100807.78;5014297;28;20050;-71
2022/08/28 06:49:18;;;;;;;11.63;10.52;;;;;;;25.83;59.96;100802.84;5016201;28;20049;-71
2022/08/28 06:51:45;;;;;;;14.27;12.95;;;;;;;25.85;59.90;100813.53;5013925;28;20057;-71
2022/08/28 06:54:14;;;;;;;18.73;16.30;;;;;;;25.82;60.18;100808.47;5015060;28;20057;-71
2022/08/28 06:56:48;;;;;;;18.92;17.00;;;;;;;25.78;60.54;100815.25;5015450;28;20057;-71
2022/08/28 06:59:15;;;;;;;21.77;17.60;;;;;;;25.71;60.85;100815.06;5014573;28;20045;-71
2022/08/28 07:01:43;;;;;;;18.67;16.70;;;;;;;25.66;60.85;100814.75;5014966;28;20045;-71
2022/08/28 07:04:11;;;;;;;18.75;16.85;;;;;;;25.65;60.67;100813.06;5015482;28;20053;-71
2022/08/28 07:06:44;;;;;;;19.95;16.85;;;;;;;25.59;60.88;100822.72;5015327;28;20042;-71
2022/08/28 07:09:13;;;;;;;18.52;16.67;;;;;;;25.53;60.91;100819.88;5015453;28;20081;-71
2022/08/28 07:11:45;;;;;;;15.68;14.07;;;;;;;25.55;61.02;100828.66;5014883;28;20402;-71
2022/08/28 07:14:12;;;;;;;14.25;12.77;;;;;;;25.57;60.85;100832.06;5015117;28;20076;-71
2022/08/28 07:16:40;;;;;;;21.23;16.73;;;;;;;25.60;61.05;100821.72;5015143;28;20054;-71
2022/08/28 07:19:09;;;;;;;24.42;21.92;;;;;;;25.62;61.21;100818.84;5015046;28;20045;-71
2022/08/28 07:21:40;;;;;;;34.83;31.10;;;;;;;25.58;61.21;100822.91;5014480;28;20383;-71
2022/08/28 07:24:11;;;;;;;44.88;37.75;;;;;;;25.51;61.29;100825.44;5015126;28;20049;-71
2022/08/28 07:26:40;;;;;;;44.88;37.63;;;;;;;25.48;61.75;100833.09;5013066;28;20052;-71
2022/08/28 07:29:08;;;;;;;29.13;25.83;;;;;;;25.42;60.85;100826.50;5014687;28;20409;-71
2022/08/28 07:31:45;;;;;;;30.63;27.38;;;;;;;25.38;61.25;100844.97;5013262;28;20046;-71
2022/08/28 07:34:13;;;;;;;33.10;26.88;;;;;;;25.35;61.58;100839.03;5015048;28;20046;-71
2022/08/28 07:36:41;;;;;;;29.42;26.40;;;;;;;25.33;61.49;100831.09;5015004;28;20045;-71
2022/08/28 07:39:11;;;;;;;31.17;27.90;;;;;;;25.31;61.51;100834.97;5014160;28;20482;-71
2022/08/28 07:41:41;;;;;;;31.67;28.30;;;;;;;25.29;62.01;100835.16;5015150;28;20041;-71
2022/08/28 07:47:01;;;;;;;27.67;24.77;;;;;;;25.25;62.28;100838.38;5015653;28;20397;-71
2022/08/28 07:49:30;;;;;;;27.55;22.25;;;;;;;25.29;61.98;100845.16;5015029;28;20053;-70
2022/08/28 07:51:57;;;;;;;23.92;21.60;;;;;;;25.34;61.87;100842.78;5014337;28;20045;-72
2022/08/28 07:54:25;;;;;;;21.35;19.05;;;;;;;25.42;61.52;100850.88;5012695;28;20516;-71
2022/08/28 07:56:52;;;;;;;19.63;17.63;;;;;;;25.47;61.90;100845.78;5014521;28;20057;-71
2022/08/28 07:59:20;;;;;;;21.88;19.58;;;;;;;25.49;61.63;100856.47;5014155;28;20050;-71
2022/08/28 08:01:50;;;;;;;20.67;18.58;;;;;;;25.45;61.74;100850.56;5014273;28;20389;-71
2022/08/28 08:04:19;;;;;;;19.80;17.75;;;;;;;25.42;61.76;100847.34;5014134;28;20049;-70
2022/08/28 08:06:48;;;;;;;17.60;15.77;;;;;;;25.43;61.68;100846.31;5014274;28;20045;-71
2022/08/28 08:09:22;;;;;;;18.90;16.50;;;;;;;25.43;61.55;100855.28;5013403;28;20052;-71
2022/08/28 08:11:49;;;;;;;15.23;13.68;;;;;;;25.44;61.45;100858.84;5013986;28;20382;-71
2022/08/28 08:14:17;;;;;;;18.25;15.70;;;;;;;25.47;61.65;100853.09;5013621;28;20041;-71
2022/08/28 08:16:45;;;;;;;18.65;16.65;;;;;;;25.43;61.87;100851.72;5014412;28;20056;-71
2022/08/28 08:19:14;;;;;;;16.15;14.55;;;;;;;25.40;61.90;100850.19;5013557;28;20049;-72
2022/08/28 08:21:44;;;;;;;13.90;12.40;;;;;;;25.43;61.54;100855.28;5014002;28;20382;-71
2022/08/28 08:24:14;;;;;;;11.95;10.50;;;;;;;25.51;61.36;100840.88;5014194;28;20045;-71
2022/08/28 08:26:48;;;;;;;11.98;10.88;;;;;;;25.58;61.19;100850.84;5013989;28;20053;-74
2022/08/28 08:29:30;;;;;;;15.13;13.52;;;;;;;25.62;61.64;100846.78;5014028;28;20049;-71
2022/08/28 08:32:04;;;;;;;15.35;13.95;;;;;;;25.62;61.29;100852.22;5014064;28;20042;-71
2022/08/28 08:34:40;;;;;;;13.88;12.40;;;;;;;25.62;61.45;100854.06;5014430;28;20049;-71
2022/08/28 08:37:08;;;;;;;14.23;12.70;;;;;;;25.63;61.43;100863.91;5014201;28;20046;-71
2022/08/28 08:39:36;;;;;;;13.88;12.48;;;;;;;25.62;61.58;100854.91;5014107;28;20386;-71
2022/08/28 08:42:09;;;;;;;15.77;13.52;;;;;;;25.63;61.36;100855.75;5012475;28;20053;-70
2022/08/28 08:44:45;;;;;;;11.40;10.30;;;;;;;25.65;61.12;100845.59;5013773;28;20046;-71
2022/08/28 08:47:38;;;;;;;10.35;9.30;;;;;;;25.69;60.90;100840.69;5013911;28;20052;-71
2022/08/28 08:50:34;;;;;;;9.43;8.50;;;;;;;25.77;61.07;100843.38;5012471;28;20053;-72
2022/08/28 08:53:08;;;;;;;10.23;9.23;;;;;;;25.84;60.79;100844.38;5027592;28;20061;-71
2022/08/28 08:55:43;;;;;;;10.27;8.82;;;;;;;25.90;60.41;100849.13;5013431;28;20095;-71
2022/08/28 08:58:30;;;;;;;13.05;8.85;;;;;;;25.97;60.58;100846.53;5013816;28;20050;-73
2022/08/28 09:01:13;;;;;;;14.32;11.88;;;;;;;25.98;61.05;100857.22;5012004;28;20054;-71
2022/08/28 09:03:40;;;;;;;;;;;;;;;25.98;61.03;100857.22;5012810;28;20046;-74
2022/08/28 09:06:23;;;;;;;15.27;13.65;;;;;;;25.95;60.72;100849.44;5014115;28;19921;-72
2022/08/28 09:08:58;;;;;;;14.55;13.13;;;;;;;25.93;61.17;100848.78;5013626;28;20382;-73
2022/08/28 09:11:41;;;;;;;13.95;12.50;;;;;;;25.91;61.32;100849.97;5013515;28;20046;-71
2022/08/28 09:14:18;;;;;;;;;;;;;;;25.90;61.17;100840.97;5014072;28;20471;-71
2022/08/28 09:16:47;;;;;;;12.00;10.77;;;;;;;25.94;61.03;100844.19;5013329;28;19929;-72
2022/08/28 09:19:19;;;;;;;10.75;9.65;;;;;;;25.94;60.74;100845.03;5013227;28;20046;-71
2022/08/28 09:21:49;;;;;;;11.73;9.23;;;;;;;25.97;60.46;100843.81;5015147;28;20374;-72
2022/08/28 09:24:31;;;;;;;9.98;8.63;;;;;;;25.99;60.52;100848.06;5017972;28;20050;-71
2022/08/28 09:27:19;;;;;;;9.68;7.78;;;;;;;26.02;60.34;100850.44;5017938;28;20153;-71
2022/08/28 09:29:54;;;;;;;10.95;9.57;;;;;;;26.03;60.60;100846.69;5017987;28;20049;-72
2022/08/28 09:32:23;;;;;;;10.95;9.85;;;;;;;26.05;60.24;100851.94;5017617;28;20470;-72
2022/08/28 09:35:00;;;;;;;11.02;9.32;;;;;;;26.05;60.01;100841.94;5017062;28;20049;-72
2022/08/28 09:37:31;;;;;;;11.57;9.55;;;;;;;26.06;59.68;100849.06;5017399;28;20079;-72
2022/08/28 09:40:13;;;;;;;11.20;10.02;;;;;;;26.07;59.85;100841.75;5018964;28;20041;-71
2022/08/28 09:45:53;;;;;;;11.20;10.07;;;;;;;26.09;59.41;100846.00;5016737;28;20050;-71
2022/08/28 09:48:31;;;;;;;10.93;9.77;;;;;;;26.10;59.71;100849.56;5015221;28;20042;-73
2022/08/28 09:51:05;;;;;;;11.07;9.93;;;;;;;26.10;59.29;100849.56;5016397;28;20500;-72
2022/08/28 09:53:53;;;;;;;10.82;9.73;;;;;;;26.11;59.17;100848.53;5013780;28;20042;-71
2022/08/28 09:56:31;;;;;;;10.60;9.23;;;;;;;26.12;59.23;100842.06;5016136;28;20056;-72
2022/08/28 09:59:11;;;;;;;14.07;9.65;;;;;;;26.13;59.50;100836.47;5016456;28;20050;-71
2022/08/28 10:01:58;;;;;;;10.63;9.20;;;;;;;26.14;59.58;100838.16;5016393;28;20080;-75
2022/08/28 10:04:47;;;;;;;9.95;8.98;;;;;;;26.16;59.75;100835.25;5013724;28;20053;-71
2022/08/28 10:07:32;;;;;;;10.77;9.68;;;;;;;26.17;59.13;100839.69;5013926;28;20061;-71
2022/08/28 10:10:16;;;;;;;10.75;9.07;;;;;;;26.18;58.98;100832.41;5014198;28;20054;-71
2022/08/28 10:13:00;;;;;;;11.98;8.95;;;;;;;26.20;58.85;100831.19;5013610;28;20050;-71
2022/08/28 10:15:49;;;;;;;9.02;8.13;;;;;;;26.21;59.15;100829.31;5013771;28;20421;-71
2022/08/28 10:18:39;;;;;;;9.32;8.43;;;;;;;26.21;59.29;100835.59;5013884;28;20054;-71
2022/08/28 10:21:11;;;;;;;9.05;8.15;;;;;;;26.23;59.15;100827.28;5014160;28;20050;-72
2022/08/28 10:23:57;;;;;;;;;;;;;;;26.24;58.82;100820.81;5014015;28;20057;-71
2022/08/28 10:26:27;;;;;;;9.43;8.45;;;;;;;26.24;59.01;100824.38;5025931;28;19925;-71
2022/08/28 10:29:21;;;;;;;9.88;8.68;;;;;;;26.26;58.72;100826.94;5032945;28;20061;-71
2022/08/28 10:32:06;;;;;;;8.68;7.88;;;;;;;26.27;58.57;100825.91;5033653;28;20192;-71
2022/08/28 10:34:45;;;;;;;9.00;8.10;;;;;;;26.27;59.08;100824.03;5014369;28;20526;-71
2022/08/28 10:37:34;;;;;;;8.80;7.90;;;;;;;26.30;59.00;100833.69;5028258;28;20050;-71
2022/08/28 10:40:17;;;;;;;10.55;8.35;;;;;;;26.31;59.41;100835.38;5017355;28;20053;-71
2022/08/28 10:42:53;;;;;;;9.45;8.50;;;;;;;26.31;59.49;100830.78;5017514;28;20065;-71
2022/08/28 10:45:25;;;;;;;9.13;8.20;;;;;;;26.33;59.62;100841.44;5025193;28;20065;-71
2022/08/28 10:48:23;;;;;;;11.63;10.43;;;;;;;26.34;59.43;100833.16;5015224;28;20045;-72
2022/08/28 10:50:59;;;;;;;12.05;10.85;;;;;;;26.35;59.53;100831.28;4999010;28;20049;-71
2022/08/28 10:53:33;;;;;;;12.57;10.95;;;;;;;26.37;59.70;100831.94;4995076;28;20046;-71
2022/08/28 10:56:24;;;;;;;11.10;9.95;;;;;;;26.39;59.58;100821.75;4995604;28;20047;-71
2022/08/28 10:59:00;;;;;;;13.07;10.35;;;;;;;26.41;59.60;100830.53;4995450;28;20513;-73
2022/08/28 11:01:34;;;;;;;13.00;8.75;;;;;;;26.43;59.40;100831.22;5002111;28;20508;-72
2022/08/28 11:04:08;;;;;;;11.73;9.07;;;;;;;26.43;58.72;100822.25;5034602;28;20496;-71
2022/08/28 11:06:40;;;;;;;13.40;8.50;;;;;;;26.46;58.73;100816.50;5034324;28;20413;-72
2022/08/28 11:09:40;;;;;;;9.27;7.97;;;;;;;26.46;58.94;100817.34;5009119;28;20076;-72
2022/08/28 11:12:28;;;;;;;12.25;9.18;;;;;;;26.47;59.32;100805.44;4995049;28;20061;-72
2022/08/28 11:14:55;;;;;;;11.30;10.18;;;;;;;26.47;59.34;100808.16;4994409;28;20066;-72
2022/08/28 11:17:26;;;;;;;11.07;9.30;;;;;;;26.49;59.04;100808.81;4994775;28;20046;-73
2022/08/28 11:20:19;;;;;;;10.88;9.80;;;;;;;26.49;59.33;100803.38;4995466;28;20051;-73
2022/08/28 11:23:09;;;;;;;11.23;9.23;;;;;;;26.50;58.50;100801.53;4995158;28;20054;-73
2022/08/28 11:25:44;;;;;;;8.57;7.70;;;;;;;26.52;58.17;100802.19;4994541;28;20046;-72
2022/08/28 11:28:18;;;;;;;8.10;7.30;;;;;;;26.53;58.30;100795.72;4994391;28;20047;-72
2022/08/28 11:30:47;;;;;;;;;;;;;;;26.53;58.52;100791.13;4993997;28;20057;-73
2022/08/28 11:33:32;;;;;;;8.65;7.70;;;;;;;26.55;58.71;100796.41;5002339;28;19921;-72
2022/08/28 11:36:00;;;;;;;9.07;8.18;;;;;;;26.56;58.40;100790.78;5013770;28;20050;-72
2022/08/28 11:38:40;;;;;;;7.60;6.90;;;;;;;26.57;58.15;100792.47;5014280;28;20049;-72
2022/08/28 11:41:20;;;;;;;8.05;7.30;;;;;;;26.61;58.18;100793.78;5013554;28;20046;-73
2022/08/28 11:43:51;;;;;;;8.73;7.32;;;;;;;26.61;58.32;100796.50;5013141;28;20042;-72
2022/08/28 11:46:33;;;;;;;10.95;7.63;;;;;;;26.65;58.09;100790.72;5013324;28;20053;-72
2022/08/28 11:49:04;;;;;;;10.02;8.13;;;;;;;26.66;58.17;100784.25;5014596;28;20057;-72